Time,TemperatureF,DewpointF,PressureIn,WindDirection,WindDirectionDegrees,WindSpeedMPH,WindSpeedGustMPH,Humidity,HourlyPrecipIn,Conditions,Clouds,dailyrainin,SoftwareType,DateUTC
2013-05-26 10:13:00,77.0,43.2,29.95,SW,225,4.2,4.2,30,0.00,,,0.00,VWS V14.01,2013-05-26 07:13:00,
2013-05-26 10:14:00,77.0,43.2,29.95,SSW,202,2.2,6.4,30,0.00,,,0.00,VWS V14.01,2013-05-26 07:14:00,
2013-05-26 10:15:00,77.0,43.2,29.95,SSW,202,2.2,2.2,30,0.00,,,0.00,VWS V14.01,2013-05-26 07:15:00,
2013-05-26 10:17:00,77.5,44.5,29.95,WSW,248,0.0,2.2,31,0.00,,,0.00,VWS V14.01,2013-05-26 07:17:00,
2013-05-26 10:22:00,77.7,43.8,29.95,West,270,4.0,4.0,30,0.00,,,0.00,VWS V14.01,2013-05-26 07:22:00,
2013-05-26 10:24:00,77.5,42.8,29.96,WNW,292,4.3,4.3,29,0.00,,,0.00,VWS V14.01,2013-05-26 07:24:00,
2013-05-26 10:25:00,77.5,42.8,29.96,WSW,248,11.0,11.0,29,0.00,,,0.00,VWS V14.01,2013-05-26 07:25:00,
2013-05-26 10:26:00,77.4,42.7,29.96,SSW,202,5.6,11.0,29,0.00,,,0.00,VWS V14.01,2013-05-26 07:26:00,
2013-05-26 10:36:00,77.2,43.4,29.96,WSW,248,0.0,2.9,30,0.00,,,0.00,VWS V14.01,2013-05-26 07:36:00,
2013-05-26 10:41:00,77.5,44.5,29.95,WNW,292,8.2,8.2,31,0.00,,,0.00,VWS V14.01,2013-05-26 07:41:00,
2013-05-26 10:46:00,77.5,44.5,29.96,WSW,248,2.0,2.0,31,0.00,,,0.00,VWS V14.01,2013-05-26 07:46:00,
2013-05-26 10:51:00,77.9,44.0,29.95,West,270,0.0,3.8,30,0.00,,,0.00,VWS V14.01,2013-05-26 07:51:00,
2013-05-26 10:56:00,78.3,44.3,29.96,WSW,248,0.0,0.0,30,0.00,,,0.00,VWS V14.01,2013-05-26 07:56:00,
2013-05-26 11:01:00,78.8,43.9,29.95,SSE,158,0.0,0.0,29,0.00,,,0.00,VWS V14.01,2013-05-26 08:01:00,
2013-05-26 11:06:00,79.5,44.5,29.95,SW,225,0.0,4.0,29,0.00,,,0.00,VWS V14.01,2013-05-26 08:06:00,
2013-05-26 11:11:00,80.1,44.0,29.95,WSW,248,4.6,4.6,28,0.00,,,0.00,VWS V14.01,2013-05-26 08:11:00,
2013-05-26 11:16:00,79.2,42.3,29.95,SW,225,2.9,4.2,27,0.00,,,0.00,VWS V14.01,2013-05-26 08:16:00,
2013-05-26 11:21:00,79.0,44.0,29.95,NNW,338,0.0,5.3,29,0.00,,,0.00,VWS V14.01,2013-05-26 08:21:00,
2013-05-26 11:26:00,79.3,43.4,29.96,WSW,248,0.0,0.0,28,8.67,,,0.00,VWS V14.01,2013-05-26 08:26:00,
2013-05-26 11:31:00,79.5,42.6,29.95,WSW,248,0.0,0.0,27,8.67,,,0.00,VWS V14.01,2013-05-26 08:31:00,
2013-05-26 11:37:00,80.2,44.1,29.95,West,270,0.0,0.0,28,8.67,,,0.00,VWS V14.01,2013-05-26 08:37:00,
2013-05-26 11:42:00,80.8,43.7,29.95,NNW,338,0.0,0.0,27,0.00,,,0.00,VWS V14.01,2013-05-26 08:42:00,
2013-05-26 11:47:00,80.6,43.5,29.95,WSW,248,0.0,0.0,27,0.00,,,0.00,VWS V14.01,2013-05-26 08:47:00,
2013-05-26 11:52:00,81.1,43.0,29.95,SSE,158,4.9,4.9,26,0.00,,,0.00,VWS V14.01,2013-05-26 08:52:00,
2013-05-26 11:57:00,80.6,42.5,29.95,SW,225,5.3,5.3,26,0.00,,,0.00,VWS V14.01,2013-05-26 08:57:00,
2013-05-26 12:02:00,80.8,43.7,29.95,NNW,338,11.6,11.6,27,0.00,,,0.00,VWS V14.01,2013-05-26 09:02:00,
2013-05-26 12:07:00,81.1,44.0,29.95,SSE,158,4.6,5.3,27,0.00,,,0.00,VWS V14.01,2013-05-26 09:07:00,
2013-05-26 12:12:00,81.5,43.3,29.94,NW,315,14.3,14.3,26,0.00,,,0.00,VWS V14.01,2013-05-26 09:12:00,
2013-05-26 12:17:00,81.1,43.0,29.95,WSW,248,2.9,11.6,26,0.00,,,0.00,VWS V14.01,2013-05-26 09:17:00,
2013-05-26 12:22:00,81.1,43.0,29.95,SSE,158,5.3,5.3,26,0.00,,,0.00,VWS V14.01,2013-05-26 09:22:00,
2013-05-26 12:27:00,81.9,41.6,29.95,WSW,248,5.8,7.6,24,0.00,,,0.00,VWS V14.01,2013-05-26 09:27:00,
2013-05-26 12:32:00,81.9,43.7,29.95,WSW,248,2.4,7.6,26,0.00,,,0.00,VWS V14.01,2013-05-26 09:32:00,
2013-05-26 12:37:00,82.0,43.7,29.94,SW,225,6.2,6.2,26,0.00,,,0.00,VWS V14.01,2013-05-26 09:37:00,
2013-05-26 12:42:00,82.0,41.7,29.94,West,270,7.1,7.1,24,0.00,,,0.00,VWS V14.01,2013-05-26 09:42:00,
2013-05-26 12:47:00,82.0,41.7,29.95,West,270,5.1,5.1,24,0.00,,,0.00,VWS V14.01,2013-05-26 09:47:00,
2013-05-26 12:52:00,82.2,41.8,29.94,West,270,10.9,10.9,24,0.00,,,0.00,VWS V14.01,2013-05-26 09:52:00,
2013-05-26 12:57:00,82.4,44.1,29.94,SSE,158,0.0,0.0,26,0.00,,,0.00,VWS V14.01,2013-05-26 09:57:00,
2013-05-26 13:02:00,82.9,42.4,29.94,South,180,2.4,2.4,24,0.00,,,0.00,VWS V14.01,2013-05-26 10:02:00,
2013-05-26 13:07:00,83.1,43.6,29.94,WSW,248,0.8,0.8,25,0.00,,,0.00,VWS V14.01,2013-05-26 10:07:00,
2013-05-26 13:12:00,83.5,45.0,29.94,SW,225,0.0,0.0,26,0.00,,,0.00,VWS V14.01,2013-05-26 10:12:00,
2013-05-26 13:17:00,84.2,44.6,29.94,SSW,202,1.7,3.8,25,0.00,,,0.00,VWS V14.01,2013-05-26 10:17:00,
2013-05-26 13:22:00,83.8,44.2,29.94,SSW,202,3.8,10.7,25,0.00,,,0.00,VWS V14.01,2013-05-26 10:22:00,
2013-05-26 13:28:00,83.3,44.8,29.94,South,180,7.1,17.0,26,0.00,,,0.00,VWS V14.01,2013-05-26 10:28:00,
2013-05-26 13:33:00,82.6,44.2,29.94,SSE,158,1.3,7.1,26,0.00,,,0.00,VWS V14.01,2013-05-26 10:33:00,
2013-05-26 13:38:00,82.9,46.5,29.94,SSE,158,1.5,1.5,28,0.00,,,0.00,VWS V14.01,2013-05-26 10:38:00,
2013-05-26 13:43:00,82.8,46.4,29.94,SSE,158,8.5,12.3,28,0.00,,,0.00,VWS V14.01,2013-05-26 10:43:00,
2013-05-26 13:48:00,81.7,45.4,29.94,SW,225,11.6,14.0,28,0.00,,,0.00,VWS V14.01,2013-05-26 10:48:00,
2013-05-26 13:53:00,81.5,45.2,29.94,South,180,9.6,11.1,28,0.00,,,0.00,VWS V14.01,2013-05-26 10:53:00,
2013-05-26 13:58:00,81.5,45.2,29.94,SSE,158,0.6,0.6,28,0.00,,,0.00,VWS V14.01,2013-05-26 10:58:00,
2013-05-26 14:03:00,81.7,47.2,29.94,SE,135,0.2,0.2,30,0.00,,,0.00,VWS V14.01,2013-05-26 11:03:00,
2013-05-26 14:08:00,81.7,45.4,29.94,SSE,158,7.6,7.6,28,0.00,,,0.00,VWS V14.01,2013-05-26 11:08:00,
2013-05-26 14:13:00,81.3,46.0,29.93,SSE,158,8.2,13.1,29,0.00,,,0.00,VWS V14.01,2013-05-26 11:13:00,
2013-05-26 14:18:00,81.1,45.8,29.94,SE,135,0.4,0.4,29,0.00,,,0.00,VWS V14.01,2013-05-26 11:18:00,
2013-05-26 14:23:00,81.1,45.8,29.94,SW,225,10.9,10.9,29,0.00,,,0.00,VWS V14.01,2013-05-26 11:23:00,
2013-05-26 14:28:00,81.1,45.8,29.93,SSE,158,10.9,10.9,29,0.00,,,0.00,VWS V14.01,2013-05-26 11:28:00,
2013-05-26 14:33:00,81.0,45.8,29.93,SSW,202,10.7,10.7,29,0.00,,,0.00,VWS V14.01,2013-05-26 11:33:00,
2013-05-26 14:38:00,81.1,45.8,29.93,South,180,14.0,14.0,29,0.00,,,0.00,VWS V14.01,2013-05-26 11:38:00,
2013-05-26 14:43:00,80.6,45.4,29.93,SSE,158,13.6,13.6,29,0.00,,,0.00,VWS V14.01,2013-05-26 11:43:00,
2013-05-26 14:48:00,80.8,45.6,29.93,South,180,9.1,9.1,29,0.00,,,0.00,VWS V14.01,2013-05-26 11:48:00,
2013-05-26 14:53:00,81.1,45.8,29.92,SSE,158,7.1,14.9,29,0.00,,,0.00,VWS V14.01,2013-05-26 11:53:00,
2013-05-26 14:58:00,81.5,46.2,29.92,SSE,158,8.0,8.0,29,0.00,,,0.00,VWS V14.01,2013-05-26 11:58:00,
2013-05-26 15:03:00,81.5,45.2,29.92,SSE,158,9.6,9.6,28,0.00,,,0.00,VWS V14.01,2013-05-26 12:03:00,
2013-05-26 15:08:00,81.5,45.2,29.92,South,180,2.4,9.6,28,0.00,,,0.00,VWS V14.01,2013-05-26 12:08:00,
2013-05-26 15:14:00,82.0,45.7,29.92,South,180,6.4,6.4,28,0.00,,,0.00,VWS V14.01,2013-05-26 12:14:00,
2013-05-26 15:19:00,82.4,46.0,29.92,SSE,158,5.8,12.5,28,0.00,,,0.00,VWS V14.01,2013-05-26 12:19:00,
2013-05-26 15:24:00,82.0,44.7,29.92,SSE,158,10.7,12.0,27,0.00,,,0.00,VWS V14.01,2013-05-26 12:24:00,
2013-05-26 15:29:00,82.2,44.9,29.91,South,180,8.2,8.2,27,0.00,,,0.00,VWS V14.01,2013-05-26 12:29:00,
2013-05-26 15:34:00,82.4,45.1,29.91,SSE,158,0.0,0.0,27,0.00,,,0.00,VWS V14.01,2013-05-26 12:34:00,
2013-05-26 15:39:00,82.4,45.1,29.91,South,180,12.0,12.0,27,0.00,,,0.00,VWS V14.01,2013-05-26 12:39:00,
2013-05-26 15:44:00,82.4,46.0,29.91,South,180,8.5,8.5,28,0.00,,,0.00,VWS V14.01,2013-05-26 12:44:00,
2013-05-26 15:49:00,82.6,47.1,29.91,South,180,7.1,7.1,29,0.00,,,0.00,VWS V14.01,2013-05-26 12:49:00,
2013-05-26 15:54:00,82.9,47.4,29.91,SSE,158,6.4,6.4,29,0.00,,,0.00,VWS V14.01,2013-05-26 12:54:00,
2013-05-26 15:59:00,82.6,48.0,29.91,South,180,9.6,9.6,30,0.00,,,0.00,VWS V14.01,2013-05-26 12:59:00,
2013-05-26 16:04:00,82.0,47.5,29.91,SSE,158,9.3,9.3,30,0.00,,,0.00,VWS V14.01,2013-05-26 13:04:00,
2013-05-26 16:09:00,82.4,47.8,29.91,SSE,158,4.0,4.0,30,0.00,,,0.00,VWS V14.01,2013-05-26 13:09:00,
2013-05-26 16:14:00,82.4,47.0,29.90,South,180,7.1,7.1,29,0.00,,,0.00,VWS V14.01,2013-05-26 13:14:00,
2013-05-26 16:19:00,82.4,47.0,29.91,South,180,10.5,10.5,29,0.00,,,0.00,VWS V14.01,2013-05-26 13:19:00,
2013-05-26 16:24:00,82.0,45.7,29.90,South,180,10.2,10.2,28,0.00,,,0.00,VWS V14.01,2013-05-26 13:24:00,
2013-05-26 16:29:00,81.9,45.6,29.90,SSW,202,0.0,0.0,28,0.00,,,0.00,VWS V14.01,2013-05-26 13:29:00,
2013-05-26 16:34:00,82.0,45.7,29.90,SW,225,11.8,11.8,28,0.00,,,0.00,VWS V14.01,2013-05-26 13:34:00,
2013-05-26 16:39:00,82.2,45.8,29.90,South,180,11.6,11.6,28,0.00,,,0.00,VWS V14.01,2013-05-26 13:39:00,
2013-05-26 16:44:00,82.4,46.0,29.90,SSW,202,10.2,10.2,28,0.00,,,0.00,VWS V14.01,2013-05-26 13:44:00,
2013-05-26 16:49:00,82.4,46.0,29.90,South,180,15.6,15.6,28,0.00,,,0.00,VWS V14.01,2013-05-26 13:49:00,
2013-05-26 16:54:00,82.0,45.7,29.90,SW,225,6.9,10.2,28,0.00,,,0.00,VWS V14.01,2013-05-26 13:54:00,
2013-05-26 16:59:00,82.4,47.0,29.89,South,180,7.6,7.8,29,0.00,,,0.00,VWS V14.01,2013-05-26 13:59:00,
2013-05-26 17:05:00,82.2,46.8,29.89,South,180,11.1,11.1,29,0.00,,,0.00,VWS V14.01,2013-05-26 14:05:00,
2013-05-26 17:10:00,82.2,46.8,29.89,SSE,158,3.3,12.5,29,0.00,,,0.00,VWS V14.01,2013-05-26 14:10:00,
2013-05-26 17:15:00,82.6,46.2,29.89,South,180,2.9,6.9,28,0.00,,,0.00,VWS V14.01,2013-05-26 14:15:00,
2013-05-26 17:20:00,82.6,46.2,29.89,SE,135,0.0,0.0,28,0.00,,,0.00,VWS V14.01,2013-05-26 14:20:00,
2013-05-26 17:25:00,82.6,47.1,29.89,SW,225,2.6,6.7,29,0.00,,,0.00,VWS V14.01,2013-05-26 14:25:00,
2013-05-26 17:30:00,82.9,47.4,29.89,SSE,158,0.0,0.0,29,0.00,,,0.00,VWS V14.01,2013-05-26 14:30:00,
2013-05-26 17:35:00,83.1,46.6,29.89,SSE,158,4.4,4.4,28,0.00,,,0.00,VWS V14.01,2013-05-26 14:35:00,
2013-05-26 17:40:00,82.6,47.1,29.89,South,180,0.0,0.0,29,0.00,,,0.00,VWS V14.01,2013-05-26 14:40:00,
2013-05-26 17:45:00,82.6,47.1,29.89,South,180,0.0,0.0,29,0.00,,,0.00,VWS V14.01,2013-05-26 14:45:00,
2013-05-26 17:50:00,82.4,47.0,29.88,SSW,202,0.2,0.2,29,0.00,,,0.00,VWS V14.01,2013-05-26 14:50:00,
2013-05-26 17:55:00,82.9,48.3,29.88,SW,225,0.0,0.0,30,0.00,,,0.00,VWS V14.01,2013-05-26 14:55:00,
2013-05-26 18:00:00,82.9,47.4,29.88,West,270,0.0,0.0,29,0.00,,,0.00,VWS V14.01,2013-05-26 15:00:00,
2013-05-26 18:05:00,82.9,48.3,29.88,West,270,0.0,0.0,30,0.00,,,0.00,VWS V14.01,2013-05-26 15:05:00,
2013-05-26 18:10:00,82.6,48.0,29.88,SSW,202,3.1,3.1,30,0.00,,,0.00,VWS V14.01,2013-05-26 15:10:00,
2013-05-26 18:15:00,82.4,47.8,29.88,West,270,0.0,0.0,30,0.00,,,0.00,VWS V14.01,2013-05-26 15:15:00,
2013-05-26 18:20:00,82.0,47.5,29.88,SSE,158,0.0,0.0,30,0.00,,,0.00,VWS V14.01,2013-05-26 15:20:00,
2013-05-26 18:25:00,82.0,48.4,29.88,SSW,202,7.3,7.3,31,0.00,,,0.00,VWS V14.01,2013-05-26 15:25:00,
2013-05-26 18:30:00,81.9,48.3,29.88,West,270,1.3,1.3,31,0.00,,,0.00,VWS V14.01,2013-05-26 15:30:00,
2013-05-26 18:35:00,81.7,48.1,29.88,NW,315,3.1,3.1,31,0.00,,,0.00,VWS V14.01,2013-05-26 15:35:00,
2013-05-26 18:40:00,81.7,48.1,29.88,WNW,292,0.0,0.0,31,0.00,,,0.00,VWS V14.01,2013-05-26 15:40:00,
2013-05-26 18:46:00,81.5,48.8,29.88,SW,225,4.6,10.0,32,0.00,,,0.00,VWS V14.01,2013-05-26 15:46:00,
2013-05-26 18:51:00,80.8,48.2,29.88,SSW,202,0.0,0.0,32,0.00,,,0.00,VWS V14.01,2013-05-26 15:51:00,
2013-05-26 18:56:00,80.8,49.0,29.89,South,180,5.3,5.3,33,0.00,,,0.00,VWS V14.01,2013-05-26 15:56:00,
2013-05-26 19:01:00,80.6,49.6,29.89,SW,225,0.0,0.0,34,0.00,,,0.00,VWS V14.01,2013-05-26 16:01:00,
2013-05-26 19:06:00,80.4,50.2,29.89,South,180,8.9,8.9,35,0.00,,,0.00,VWS V14.01,2013-05-26 16:06:00,
2013-05-26 19:11:00,79.7,50.4,29.88,WSW,248,2.4,2.4,36,0.00,,,0.00,VWS V14.01,2013-05-26 16:11:00,
2013-05-26 19:16:00,79.3,50.0,29.89,WNW,292,0.0,0.0,36,0.00,,,0.00,VWS V14.01,2013-05-26 16:16:00,
2013-05-26 19:21:00,79.0,50.5,29.89,WSW,248,0.0,0.0,37,0.00,,,0.00,VWS V14.01,2013-05-26 16:21:00,
2013-05-26 19:26:00,79.0,50.5,29.89,SSW,202,0.0,5.5,37,0.00,,,0.00,VWS V14.01,2013-05-26 16:26:00,
2013-05-26 19:31:00,78.6,50.1,29.89,WSW,248,6.0,6.0,37,0.00,,,0.00,VWS V14.01,2013-05-26 16:31:00,
2013-05-26 19:36:00,78.4,50.0,29.89,SSW,202,4.6,4.6,37,0.00,,,0.00,VWS V14.01,2013-05-26 16:36:00,
2013-05-26 19:41:00,78.4,50.0,29.89,WNW,292,0.0,0.0,37,0.00,,,0.00,VWS V14.01,2013-05-26 16:41:00,
2013-05-26 19:46:00,78.3,49.9,29.89,NNW,338,0.2,2.6,37,0.00,,,0.00,VWS V14.01,2013-05-26 16:46:00,
2013-05-26 19:51:00,78.1,49.7,29.89,West,270,4.6,4.6,37,0.00,,,0.00,VWS V14.01,2013-05-26 16:51:00,
2013-05-26 19:56:00,77.5,49.9,29.89,WSW,248,0.0,0.0,38,0.00,,,0.00,VWS V14.01,2013-05-26 16:56:00,
2013-05-26 20:01:00,77.2,49.6,29.90,NW,315,0.0,0.0,38,0.00,,,0.00,VWS V14.01,2013-05-26 17:01:00,
2013-05-26 20:06:00,77.0,49.4,29.89,WSW,248,8.0,10.0,38,0.00,,,0.00,VWS V14.01,2013-05-26 17:06:00,
2013-05-26 20:11:00,76.6,49.8,29.89,West,270,0.6,0.6,39,0.00,,,0.00,VWS V14.01,2013-05-26 17:11:00,
2013-05-26 20:17:00,76.3,49.5,29.90,West,270,7.3,7.3,39,0.00,,,0.00,VWS V14.01,2013-05-26 17:17:00,
2013-05-26 20:22:00,76.1,49.3,29.90,West,270,0.6,0.6,39,0.00,,,0.00,VWS V14.01,2013-05-26 17:22:00,
2013-05-26 20:27:00,75.9,48.5,29.90,West,270,7.3,7.3,38,0.00,,,0.00,VWS V14.01,2013-05-26 17:27:00,
2013-05-26 20:32:00,75.7,47.6,29.90,WNW,292,0.0,0.0,37,0.00,,,0.00,VWS V14.01,2013-05-26 17:32:00,
2013-05-26 20:37:00,75.4,48.0,29.89,South,180,0.6,0.6,38,0.00,,,0.00,VWS V14.01,2013-05-26 17:37:00,
2013-05-26 20:42:00,75.2,47.8,29.90,NW,315,4.0,4.0,38,0.00,,,0.00,VWS V14.01,2013-05-26 17:42:00,
2013-05-26 20:47:00,75.2,47.8,29.90,WSW,248,0.6,0.6,38,0.00,,,0.00,VWS V14.01,2013-05-26 17:47:00,
2013-05-26 20:52:00,74.8,48.2,29.89,WSW,248,10.0,10.0,39,0.00,,,0.00,VWS V14.01,2013-05-26 17:52:00,
2013-05-26 20:57:00,74.7,48.1,29.90,SW,225,0.0,0.0,39,0.00,,,0.00,VWS V14.01,2013-05-26 17:57:00,
2013-05-26 21:02:00,74.5,47.9,29.90,WNW,292,4.2,4.2,39,0.00,,,0.00,VWS V14.01,2013-05-26 18:02:00,
2013-05-26 21:07:00,74.3,48.4,29.90,North,0,0.0,2.0,40,0.00,,,0.00,VWS V14.01,2013-05-26 18:07:00,
2013-05-26 21:12:00,74.1,48.2,29.90,SW,225,0.0,0.0,40,0.00,,,0.00,VWS V14.01,2013-05-26 18:12:00,
2013-05-26 21:17:00,73.9,48.7,29.90,SW,225,0.0,0.0,41,0.00,,,0.00,VWS V14.01,2013-05-26 18:17:00,
2013-05-26 21:22:00,73.6,48.4,29.90,WNW,292,0.0,0.0,41,0.00,,,0.00,VWS V14.01,2013-05-26 18:22:00,
2013-05-26 21:27:00,73.4,48.9,29.90,West,270,0.0,0.0,42,0.00,,,0.00,VWS V14.01,2013-05-26 18:27:00,
2013-05-26 21:32:00,73.2,48.7,29.90,West,270,0.0,0.0,42,0.00,,,0.00,VWS V14.01,2013-05-26 18:32:00,
2013-05-26 21:37:00,73.0,48.5,29.90,WSW,248,0.0,0.0,42,0.00,,,0.00,VWS V14.01,2013-05-26 18:37:00,
2013-05-26 21:42:00,72.9,49.1,29.90,West,270,1.7,1.7,43,0.00,,,0.00,VWS V14.01,2013-05-26 18:42:00,
2013-05-26 21:47:00,72.7,48.9,29.90,WSW,248,0.0,0.0,43,0.00,,,0.00,VWS V14.01,2013-05-26 18:47:00,
2013-05-26 21:52:00,72.7,48.9,29.91,NW,315,2.4,2.4,43,0.00,,,0.00,VWS V14.01,2013-05-26 18:52:00,
2013-05-26 21:57:00,72.5,48.7,29.91,WNW,292,0.0,0.0,43,0.00,,,0.00,VWS V14.01,2013-05-26 18:57:00,
2013-05-26 22:02:00,72.5,48.7,29.91,WNW,292,0.0,0.0,43,0.00,,,0.00,VWS V14.01,2013-05-26 19:02:00,
2013-05-26 22:08:00,72.3,49.2,29.91,NW,315,2.2,2.2,44,0.00,,,0.00,VWS V14.01,2013-05-26 19:08:00,
2013-05-26 22:13:00,72.1,49.0,29.91,West,270,0.0,0.0,44,0.00,,,0.00,VWS V14.01,2013-05-26 19:13:00,
2013-05-26 22:18:00,72.0,48.9,29.91,West,270,0.0,0.0,44,0.00,,,0.00,VWS V14.01,2013-05-26 19:18:00,
2013-05-26 22:23:00,71.8,49.3,29.92,West,270,0.0,0.0,45,0.00,,,0.00,VWS V14.01,2013-05-26 19:23:00,
2013-05-26 22:28:00,71.6,49.1,29.92,West,270,0.0,0.0,45,0.00,,,0.00,VWS V14.01,2013-05-26 19:28:00,
2013-05-26 22:33:00,71.6,49.7,29.92,West,270,1.5,1.5,46,0.00,,,0.00,VWS V14.01,2013-05-26 19:33:00,
2013-05-26 22:38:00,71.4,49.5,29.92,West,270,5.3,5.3,46,0.00,,,0.00,VWS V14.01,2013-05-26 19:38:00,
2013-05-26 22:43:00,71.2,49.9,29.93,SW,225,6.9,6.9,47,0.00,,,0.00,VWS V14.01,2013-05-26 19:43:00,
2013-05-26 22:48:00,71.1,49.8,29.93,WSW,248,9.8,9.8,47,0.00,,,0.00,VWS V14.01,2013-05-26 19:48:00,
2013-05-26 22:53:00,70.9,49.7,29.93,West,270,1.1,1.1,47,0.00,,,0.00,VWS V14.01,2013-05-26 19:53:00,
2013-05-26 22:58:00,70.7,50.0,29.93,WSW,248,0.0,0.0,48,0.00,,,0.00,VWS V14.01,2013-05-26 19:58:00,
2013-05-26 23:03:00,70.5,49.8,29.93,West,270,1.7,1.7,48,0.00,,,0.00,VWS V14.01,2013-05-26 20:03:00,
2013-05-26 23:08:00,70.3,49.7,29.93,WNW,292,4.4,4.4,48,0.00,,,0.00,VWS V14.01,2013-05-26 20:08:00,
2013-05-26 23:13:00,70.3,49.7,29.93,WSW,248,0.0,0.0,48,0.00,,,0.00,VWS V14.01,2013-05-26 20:13:00,
2013-05-26 23:18:00,70.0,49.4,29.93,SW,225,4.0,4.0,48,0.00,,,0.00,VWS V14.01,2013-05-26 20:18:00,
2013-05-26 23:23:00,70.0,49.4,29.93,West,270,6.2,6.2,48,0.00,,,0.00,VWS V14.01,2013-05-26 20:23:00,
2013-05-26 23:28:00,69.8,49.2,29.93,West,270,0.8,0.8,48,0.00,,,0.00,VWS V14.01,2013-05-26 20:28:00,
2013-05-26 23:33:00,69.8,49.2,29.93,SSW,202,0.0,0.0,48,0.00,,,0.00,VWS V14.01,2013-05-26 20:33:00,
2013-05-26 23:38:00,69.8,49.8,29.93,West,270,0.4,0.4,49,0.00,,,0.00,VWS V14.01,2013-05-26 20:38:00,
2013-05-26 23:43:00,69.3,49.3,29.93,West,270,0.6,0.6,49,0.00,,,0.00,VWS V14.01,2013-05-26 20:43:00,
2013-05-26 23:48:00,69.1,49.7,29.93,NW,315,1.5,6.9,50,0.00,,,0.00,VWS V14.01,2013-05-26 20:48:00,
2013-05-26 23:53:00,68.9,49.5,29.93,West,270,9.8,9.8,50,0.00,,,0.00,VWS V14.01,2013-05-26 20:53:00,
2013-05-26 23:59:00,68.9,48.9,29.93,West,270,5.3,5.5,49,0.00,,,0.00,VWS V14.01,2013-05-26 20:59:00,